createdAt,value
2022-08-08T00:01:19.385Z,1.20
2022-08-08T00:04:05.528Z,1.40
2022-08-08T00:07:12.820Z,1.30
2022-08-08T00:10:05.924Z,1.60
2022-08-08T00:12:48.505Z,1.20
2022-08-08T00:15:57.079Z,1.40
2022-08-08T00:18:23.239Z,1.43
2022-08-08T00:21:00.995Z,1.40
2022-08-08T00:23:56.341Z,1.40
2022-08-08T00:26:34.826Z,1.43
2022-08-08T00:29:09.603Z,1.17
2022-08-08T00:32:21.231Z,1.33
2022-08-08T00:35:04.311Z,1.23
2022-08-08T00:38:06.550Z,1.30
2022-08-08T00:41:14.368Z,1.10
2022-08-08T00:44:09.304Z,1.00
2022-08-08T00:46:58.655Z,1.30
2022-08-08T00:49:42.273Z,1.20
2022-08-08T00:52:24.431Z,1.10
2022-08-08T00:55:05.561Z,1.30
2022-08-08T00:57:57.054Z,1.37
2022-08-08T01:06:51.211Z,1.27
2022-08-08T01:09:49.327Z,1.20
2022-08-08T01:15:37.028Z,1.20
2022-08-08T01:18:25.505Z,1.10
2022-08-08T01:21:11.993Z,1.30
2022-08-08T01:24:16.452Z,1.40
2022-08-08T01:26:58.840Z,1.30
2022-08-08T01:29:59.153Z,1.33
2022-08-08T01:32:52.019Z,1.13
2022-08-08T01:35:38.542Z,1.20
2022-08-08T01:38:26.590Z,1.37
2022-08-08T01:41:11.549Z,1.40
2022-08-08T01:44:02.055Z,1.70
2022-08-08T01:46:42.900Z,1.23
2022-08-08T01:49:38.513Z,1.33
2022-08-08T01:54:12.189Z,1.50
2022-08-08T01:56:28.354Z,1.33
2022-08-08T01:59:02.762Z,1.40
2022-08-08T02:01:59.754Z,1.20
2022-08-08T02:04:44.097Z,1.60
2022-08-08T02:07:25.897Z,1.30
2022-08-08T02:10:37.048Z,1.10
2022-08-08T02:13:53.761Z,1.30
2022-08-08T02:16:33.804Z,1.30
2022-08-08T02:19:26.972Z,1.40
2022-08-08T02:22:31.393Z,1.30
2022-08-08T02:25:15.139Z,1.30
2022-08-08T02:27:56.437Z,1.30
2022-08-08T02:30:49.778Z,1.33
2022-08-08T02:36:46.437Z,1.30
2022-08-08T02:39:41.137Z,1.30
2022-08-08T02:42:38.196Z,1.30
2022-08-08T02:45:30.120Z,1.43
2022-08-08T02:48:27.322Z,1.53
2022-08-08T02:51:29.893Z,1.67
2022-08-08T02:54:18.199Z,1.40
2022-08-08T02:56:56.311Z,1.27
2022-08-08T02:59:57.943Z,1.40
2022-08-08T03:02:50.834Z,1.40
2022-08-08T03:05:45.505Z,1.50
2022-08-08T03:08:34.156Z,1.30
2022-08-08T03:11:25.627Z,1.40
2022-08-08T03:15:57.760Z,1.40
2022-08-08T03:17:34.040Z,1.70
2022-08-08T03:20:13.998Z,1.60
2022-08-08T03:23:00.783Z,1.30
2022-08-08T03:25:36.582Z,1.30
2022-08-08T03:28:12.627Z,1.30
2022-08-08T03:30:43.292Z,1.50
2022-08-08T03:33:56.696Z,1.60
2022-08-08T03:36:27.814Z,1.30
2022-08-08T03:39:15.343Z,1.37
2022-08-08T03:44:33.631Z,1.30
2022-08-08T03:50:00.381Z,1.43
2022-08-08T03:52:33.987Z,1.40
2022-08-08T03:55:20.228Z,1.40
2022-08-08T03:58:30.812Z,1.37
2022-08-08T04:01:01.781Z,1.37
2022-08-08T04:06:32.321Z,1.10
2022-08-08T04:09:10.526Z,1.50
2022-08-08T04:11:57.972Z,1.30
2022-08-08T04:14:34.311Z,1.37
2022-08-08T04:17:22.386Z,1.40
2022-08-08T04:20:05.005Z,1.20
2022-08-08T04:22:41.447Z,1.50
2022-08-08T04:25:13.185Z,1.27
2022-08-08T04:28:35.156Z,1.20
2022-08-08T04:31:06.249Z,1.70
2022-08-08T04:33:41.876Z,1.37
2022-08-08T04:36:20.069Z,1.60
2022-08-08T04:39:13.451Z,1.40
2022-08-08T04:41:46.053Z,1.30
2022-08-08T04:47:06.345Z,1.43
2022-08-08T04:50:00.312Z,1.50
2022-08-08T04:52:35.314Z,1.40
2022-08-08T04:55:07.099Z,1.37
2022-08-08T04:57:35.665Z,1.50
2022-08-08T05:00:06.294Z,1.70
2022-08-08T05:02:47.080Z,1.30
2022-08-08T05:05:44.897Z,1.70
2022-08-08T05:08:30.769Z,1.50
2022-08-08T05:11:04.387Z,1.80
2022-08-08T05:13:36.250Z,1.70
2022-08-08T05:19:08.768Z,1.57
2022-08-08T05:21:59.536Z,1.80
2022-08-08T05:24:32.235Z,1.67
2022-08-08T05:27:11.198Z,1.60
2022-08-08T05:29:50.335Z,1.77
2022-08-08T05:32:24.557Z,1.50
2022-08-08T05:34:57.411Z,1.50
2022-08-08T05:37:49.306Z,1.60
2022-08-08T05:40:28.133Z,1.40
2022-08-08T05:43:38.291Z,1.47
2022-08-08T05:46:03.216Z,1.60
2022-08-08T05:48:41.976Z,1.60
2022-08-08T05:51:16.265Z,1.60
2022-08-08T05:54:25.543Z,1.60
2022-08-08T05:56:47.356Z,1.30
2022-08-08T05:59:59.975Z,1.50
2022-08-08T06:02:54.562Z,1.80
2022-08-08T06:05:35.411Z,1.60
2022-08-08T06:08:09.567Z,1.40
2022-08-08T06:10:46.552Z,1.60
2022-08-08T06:13:23.306Z,1.80
2022-08-08T06:16:00.834Z,1.50
2022-08-08T06:18:31.558Z,1.57
2022-08-08T06:21:28.626Z,1.50
2022-08-08T06:24:03.619Z,1.60
2022-08-08T06:30:00.470Z,1.40
2022-08-08T06:32:26.430Z,1.70
2022-08-08T06:36:00.516Z,1.70
2022-08-08T06:37:58.303Z,2.00
2022-08-08T06:40:53.611Z,1.63
2022-08-08T06:43:34.367Z,1.70
2022-08-08T06:46:03.802Z,1.27
2022-08-08T06:48:38.498Z,1.80
2022-08-08T06:51:08.415Z,1.73
2022-08-08T06:53:51.313Z,1.60
2022-08-08T06:56:28.659Z,1.57
2022-08-08T06:59:16.962Z,1.63
2022-08-08T07:02:18.033Z,1.70
2022-08-08T07:05:11.981Z,1.57
2022-08-08T07:08:08.832Z,1.50
2022-08-08T07:10:47.786Z,1.97
2022-08-08T07:13:25.212Z,1.70
2022-08-08T07:16:12.518Z,1.37
2022-08-08T07:18:55.941Z,1.77
2022-08-08T07:21:36.098Z,1.43
2022-08-08T07:24:11.163Z,1.80
2022-08-08T07:26:46.749Z,1.60
2022-08-08T07:30:00.063Z,1.50
2022-08-08T07:32:17.134Z,1.60
2022-08-08T07:35:01.179Z,1.70
2022-08-08T07:40:29.228Z,1.57
2022-08-08T07:43:11.979Z,1.80
2022-08-08T07:46:04.913Z,1.77
2022-08-08T07:48:38.652Z,1.80
2022-08-08T07:51:08.916Z,1.60
2022-08-08T07:54:26.512Z,1.50
2022-08-08T07:57:01.919Z,1.70
2022-08-08T07:59:38.091Z,1.40
2022-08-08T08:02:32.759Z,2.03
2022-08-08T08:05:14.500Z,1.80
2022-08-08T08:07:53.059Z,1.60
2022-08-08T08:10:30.390Z,1.60
2022-08-08T08:14:05.947Z,1.67
2022-08-08T08:16:42.322Z,1.60
2022-08-08T08:19:21.232Z,1.67
2022-08-08T08:22:07.861Z,1.70
2022-08-08T08:24:43.072Z,1.77
2022-08-08T08:27:20.232Z,1.50
2022-08-08T08:29:53.323Z,1.80
2022-08-08T08:32:35.698Z,1.67
2022-08-08T08:35:07.944Z,1.60
2022-08-08T08:38:13.000Z,1.53
2022-08-08T08:40:48.708Z,1.70
2022-08-08T08:43:26.695Z,1.47
2022-08-08T08:45:58.077Z,1.43
2022-08-08T08:48:35.070Z,1.60
2022-08-08T08:51:05.189Z,1.60
2022-08-08T08:53:56.232Z,1.70
2022-08-08T08:56:33.586Z,1.60
2022-08-08T08:59:05.259Z,1.70
2022-08-08T09:01:43.909Z,1.90
2022-08-08T09:04:30.317Z,1.80
2022-08-08T09:07:13.953Z,1.43
2022-08-08T09:09:47.707Z,1.60
2022-08-08T09:12:24.704Z,1.40
2022-08-08T09:15:01.883Z,1.77
2022-08-08T09:17:41.224Z,1.67
2022-08-08T09:22:02.281Z,1.40
2022-08-08T09:23:17.427Z,1.53
2022-08-08T09:26:04.165Z,1.77
2022-08-08T09:28:40.910Z,1.50
2022-08-08T09:31:18.354Z,1.90
2022-08-08T09:34:30.189Z,1.30
2022-08-08T09:37:28.663Z,1.97
2022-08-08T09:40:02.239Z,1.80
2022-08-08T09:42:53.173Z,1.37
2022-08-08T09:46:01.680Z,1.70
2022-08-08T09:48:26.147Z,1.40
2022-08-08T09:51:05.181Z,1.30
2022-08-08T09:54:09.411Z,1.37
2022-08-08T09:56:56.002Z,1.50
2022-08-08T10:00:02.236Z,1.60
2022-08-08T10:02:29.387Z,1.30
2022-08-08T10:05:15.214Z,1.30
2022-08-08T10:08:00.423Z,1.40
2022-08-08T10:10:32.368Z,1.40
2022-08-08T10:13:22.700Z,1.40
2022-08-08T10:18:55.504Z,1.40
2022-08-08T10:21:32.935Z,1.27
2022-08-08T10:24:28.900Z,1.00
2022-08-08T10:27:04.548Z,1.20
2022-08-08T10:29:58.828Z,1.20
2022-08-08T10:32:37.439Z,1.40
2022-08-08T10:36:19.903Z,1.20
2022-08-08T10:38:38.602Z,1.20
2022-08-08T10:41:21.064Z,1.20
2022-08-08T10:43:54.143Z,1.10
2022-08-08T10:46:29.749Z,1.20
2022-08-08T10:49:12.010Z,1.33
2022-08-08T10:55:06.356Z,1.20
2022-08-08T10:57:45.214Z,1.20
2022-08-08T11:00:30.439Z,1.20
2022-08-08T11:03:00.716Z,1.40
2022-08-08T11:05:38.933Z,1.40
2022-08-08T11:08:37.710Z,1.13
2022-08-08T11:11:32.100Z,1.00
2022-08-08T11:14:06.505Z,1.10
2022-08-08T11:16:36.055Z,1.10
2022-08-08T11:19:04.842Z,1.10
2022-08-08T11:21:54.218Z,0.90
2022-08-08T11:24:29.689Z,1.10
2022-08-08T11:27:19.169Z,1.20
2022-08-08T11:30:04.445Z,1.10
2022-08-08T11:32:50.282Z,1.30
2022-08-08T11:35:38.522Z,1.10
2022-08-08T11:38:38.608Z,1.37
2022-08-08T11:41:04.843Z,1.17
2022-08-08T11:43:38.469Z,1.00
2022-08-08T11:46:14.029Z,1.20
2022-08-08T11:48:50.953Z,1.00
2022-08-08T11:51:38.065Z,1.27
2022-08-08T11:54:31.250Z,1.10
2022-08-08T11:57:23.772Z,1.00
2022-08-08T12:00:10.673Z,1.03
2022-08-08T12:02:52.077Z,1.17
2022-08-08T12:05:37.678Z,1.17
2022-08-08T12:08:15.128Z,1.20
2022-08-08T12:10:50.989Z,0.97
2022-08-08T12:13:38.394Z,1.33
2022-08-08T12:16:31.894Z,0.90
2022-08-08T12:19:15.433Z,0.80
2022-08-08T12:21:59.354Z,1.17
2022-08-08T12:24:34.218Z,1.00
2022-08-08T12:27:08.625Z,0.90
2022-08-08T12:29:45.037Z,1.27
2022-08-08T12:32:23.350Z,1.10
2022-08-08T12:35:18.251Z,1.00
2022-08-08T12:38:02.237Z,1.00
2022-08-08T12:40:54.506Z,0.80
2022-08-08T12:43:43.793Z,1.00
2022-08-08T12:46:28.703Z,1.20
2022-08-08T12:52:03.273Z,0.90
2022-08-08T12:54:45.865Z,0.90
2022-08-08T12:57:38.297Z,1.30
2022-08-08T13:00:33.944Z,0.97
2022-08-08T13:03:07.674Z,1.00
2022-08-08T13:06:05.540Z,1.10
2022-08-08T13:08:57.352Z,0.90
2022-08-08T13:12:24.521Z,1.10
2022-08-08T13:14:53.067Z,1.10
2022-08-08T13:18:08.224Z,0.90
2022-08-08T13:20:27.872Z,0.80
2022-08-08T13:23:31.349Z,0.93
2022-08-08T13:25:59.511Z,1.00
2022-08-08T13:28:37.584Z,0.90
2022-08-08T13:31:20.406Z,0.90
2022-08-08T13:36:32.955Z,0.97
2022-08-08T13:39:17.576Z,0.90
2022-08-08T13:41:57.003Z,1.20
2022-08-08T13:44:33.134Z,0.73
2022-08-08T13:47:07.214Z,1.10
2022-08-08T13:50:36.695Z,0.90
2022-08-08T13:52:37.393Z,0.90
2022-08-08T13:55:08.659Z,0.93
2022-08-08T13:58:06.759Z,0.90
2022-08-08T14:00:45.480Z,0.90
2022-08-08T14:03:53.920Z,1.20
2022-08-08T14:06:32.897Z,1.10
2022-08-08T14:09:25.404Z,0.90
2022-08-08T14:12:02.085Z,0.90
2022-08-08T14:14:59.078Z,1.00
2022-08-08T14:20:55.426Z,1.10
2022-08-08T14:23:21.482Z,1.00
2022-08-08T14:26:11.732Z,1.20
2022-08-08T14:28:41.077Z,1.10
2022-08-08T14:31:20.241Z,1.00
2022-08-08T14:34:04.434Z,1.03
2022-08-08T14:36:53.290Z,0.90
2022-08-08T14:39:24.597Z,0.83
2022-08-08T14:42:09.343Z,1.00
2022-08-08T14:44:39.832Z,0.80
2022-08-08T14:50:11.527Z,0.80
2022-08-08T14:52:53.077Z,1.03
2022-08-08T14:55:35.284Z,1.00
2022-08-08T14:58:16.812Z,0.70
2022-08-08T15:00:56.028Z,0.90
2022-08-08T15:03:27.935Z,0.90
2022-08-08T15:08:54.402Z,1.10
2022-08-08T15:11:26.631Z,0.70
2022-08-08T15:14:01.017Z,0.90
2022-08-08T15:16:34.324Z,1.10
2022-08-08T15:19:06.975Z,1.00
2022-08-08T15:21:42.783Z,1.10
2022-08-08T15:24:16.997Z,0.80
2022-08-08T15:26:52.952Z,0.83
2022-08-08T15:29:29.852Z,0.90
2022-08-08T15:32:17.834Z,0.90
2022-08-08T15:34:52.109Z,1.00
2022-08-08T15:37:19.637Z,0.90
2022-08-08T15:39:52.358Z,0.90
2022-08-08T15:42:32.378Z,1.27
2022-08-08T15:45:06.163Z,0.80
2022-08-08T15:47:36.948Z,0.90
2022-08-08T15:50:14.498Z,1.10
2022-08-08T15:52:49.712Z,0.90
2022-08-08T15:58:15.081Z,0.87
2022-08-08T16:00:50.519Z,1.07
2022-08-08T16:03:21.910Z,1.00
2022-08-08T16:06:01.247Z,1.10
2022-08-08T16:08:33.613Z,1.03
2022-08-08T16:13:15.121Z,0.90
2022-08-08T16:16:57.483Z,1.10
2022-08-08T16:19:25.958Z,1.10
2022-08-08T16:21:57.878Z,0.97
2022-08-08T16:24:29.425Z,1.03
2022-08-08T16:27:01.915Z,0.90
2022-08-08T16:29:37.347Z,1.07
2022-08-08T16:32:27.734Z,0.90
2022-08-08T16:34:59.468Z,0.90
2022-08-08T16:37:31.462Z,1.10
2022-08-08T16:40:03.291Z,1.20
2022-08-08T16:42:34.981Z,0.80
2022-08-08T16:46:36.386Z,0.80
2022-08-08T16:48:13.446Z,1.20
2022-08-08T16:55:01.629Z,1.10
2022-08-08T16:56:25.367Z,0.90
2022-08-08T16:58:55.293Z,0.80
2022-08-08T17:01:30.908Z,0.80
2022-08-08T17:04:08.275Z,1.00
2022-08-08T17:09:23.930Z,1.03
2022-08-08T17:12:07.896Z,1.00
2022-08-08T17:14:43.947Z,0.90
2022-08-08T17:17:23.006Z,0.90
2022-08-08T17:20:09.708Z,1.00
2022-08-08T17:23:16.492Z,0.70
2022-08-08T17:25:52.079Z,0.80
2022-08-08T17:28:28.845Z,0.80
2022-08-08T17:31:44.516Z,1.00
2022-08-08T17:34:35.674Z,1.00
2022-08-08T17:37:03.567Z,0.80
2022-08-08T17:40:03.211Z,0.80
2022-08-08T17:42:58.926Z,1.00
2022-08-08T17:45:32.816Z,0.80
2022-08-08T17:48:14.872Z,0.70
2022-08-08T17:51:01.589Z,0.70
2022-08-08T17:53:43.639Z,0.90
2022-08-08T17:56:17.603Z,0.90
2022-08-08T17:58:50.271Z,0.80
2022-08-08T18:01:29.850Z,0.83
2022-08-08T18:04:19.934Z,1.10
2022-08-08T18:07:00.692Z,1.00
2022-08-08T18:09:38.663Z,1.57
2022-08-08T18:12:13.226Z,1.03
2022-08-08T18:14:44.334Z,1.30
2022-08-08T18:17:17.694Z,1.43
2022-08-08T18:20:37.228Z,1.47
2022-08-08T18:22:50.867Z,1.33
2022-08-08T18:25:21.277Z,1.03
2022-08-08T18:27:54.602Z,1.13
2022-08-08T18:30:26.656Z,1.30
2022-08-08T18:32:57.455Z,1.10
2022-08-08T18:35:34.204Z,1.30
2022-08-08T18:38:19.173Z,1.00
2022-08-08T18:40:51.083Z,1.10
2022-08-08T18:43:37.797Z,1.30
2022-08-08T18:46:55.506Z,1.10
2022-08-08T18:49:11.252Z,1.03
2022-08-08T18:51:53.527Z,1.00
2022-08-08T18:54:29.895Z,0.80
2022-08-08T18:57:02.418Z,1.10
2022-08-08T18:59:38.525Z,1.17
2022-08-08T19:02:28.921Z,1.40
2022-08-08T19:04:59.712Z,1.20
2022-08-08T19:07:33.411Z,1.20
2022-08-08T19:10:16.676Z,1.10
2022-08-08T19:12:50.091Z,1.00
2022-08-08T19:18:33.040Z,1.17
2022-08-08T19:21:28.844Z,1.00
2022-08-08T19:24:05.637Z,1.37
2022-08-08T19:26:38.307Z,1.30
2022-08-08T19:29:12.215Z,1.47
2022-08-08T19:31:51.571Z,1.40
2022-08-08T19:34:36.253Z,1.27
2022-08-08T19:37:16.419Z,1.50
2022-08-08T19:39:51.019Z,1.30
2022-08-08T19:42:26.586Z,1.37
2022-08-08T19:45:07.111Z,1.20
2022-08-08T19:47:41.153Z,1.60
2022-08-08T19:50:14.998Z,1.50
2022-08-08T19:52:54.419Z,1.40
2022-08-08T19:55:26.601Z,1.17
2022-08-08T19:58:02.019Z,1.20
2022-08-08T20:00:36.676Z,1.23
2022-08-08T20:03:15.290Z,1.20
2022-08-08T20:06:15.202Z,0.97
2022-08-08T20:08:50.464Z,1.00
2022-08-08T20:11:23.523Z,1.10
2022-08-08T20:14:13.174Z,1.10
2022-08-08T20:16:54.149Z,1.03
2022-08-08T20:19:24.689Z,1.13
2022-08-08T20:21:57.888Z,1.00
2022-08-08T20:27:20.246Z,1.20
2022-08-08T20:30:00.622Z,0.90
2022-08-08T20:32:31.901Z,1.20
2022-08-08T20:35:02.192Z,1.10
2022-08-08T20:37:46.902Z,0.87
2022-08-08T20:40:33.677Z,1.17
2022-08-08T20:43:16.333Z,0.90
2022-08-08T20:45:57.914Z,1.03
2022-08-08T20:48:34.483Z,1.00
2022-08-08T20:51:10.367Z,1.10
2022-08-08T20:56:35.948Z,1.00
2022-08-08T20:59:10.310Z,0.80
2022-08-08T21:02:06.670Z,1.00
2022-08-08T21:04:39.797Z,1.00
2022-08-08T21:07:16.193Z,1.13
2022-08-08T21:10:07.903Z,0.83
2022-08-08T21:12:46.038Z,1.10
2022-08-08T21:16:03.852Z,1.03
2022-08-08T21:18:11.568Z,1.00
2022-08-08T21:20:49.233Z,1.10
2022-08-08T21:23:25.259Z,0.97
2022-08-08T21:26:27.082Z,0.90
2022-08-08T21:29:00.619Z,0.73
2022-08-08T21:31:53.371Z,1.10
2022-08-08T21:34:29.961Z,1.13
2022-08-08T21:37:11.293Z,1.00
2022-08-08T21:39:56.483Z,0.90
2022-08-08T21:42:27.087Z,0.90
2022-08-08T21:45:20.830Z,1.00
2022-08-08T21:48:05.442Z,0.93
2022-08-08T21:50:46.872Z,1.10
2022-08-08T21:54:35.171Z,0.90
2022-08-08T21:56:19.396Z,0.90
2022-08-08T21:59:15.261Z,0.90
2022-08-08T22:01:52.466Z,0.90
2022-08-08T22:04:31.783Z,0.90
2022-08-08T22:07:04.431Z,0.80
2022-08-08T22:09:37.414Z,0.90
2022-08-08T22:12:17.280Z,0.80
2022-08-08T22:14:50.254Z,0.90
2022-08-08T22:20:23.873Z,1.00
2022-08-08T22:23:03.774Z,1.00
2022-08-08T22:26:19.986Z,1.13
2022-08-08T22:29:04.542Z,0.70
2022-08-08T22:31:18.245Z,0.77
2022-08-08T22:34:13.642Z,0.83
2022-08-08T22:36:48.731Z,0.90
2022-08-08T22:39:20.543Z,0.80
2022-08-08T22:41:53.321Z,0.90
2022-08-08T22:44:23.219Z,0.80
2022-08-08T22:46:58.440Z,0.90
2022-08-08T22:49:26.972Z,0.90
2022-08-08T22:52:00.517Z,1.10
2022-08-08T22:55:04.444Z,1.10
2022-08-08T22:57:25.390Z,0.87
2022-08-08T22:59:59.508Z,0.80
2022-08-08T23:02:32.957Z,1.03
2022-08-08T23:05:07.602Z,1.00
2022-08-08T23:07:56.975Z,0.90
2022-08-08T23:10:28.745Z,1.10
2022-08-08T23:13:00.344Z,0.80
2022-08-08T23:16:41.494Z,0.97
2022-08-08T23:18:25.354Z,0.97
2022-08-08T23:20:56.418Z,0.80
2022-08-08T23:23:27.187Z,0.93
2022-08-08T23:26:05.173Z,0.70
2022-08-08T23:28:39.930Z,1.10
2022-08-08T23:34:18.016Z,0.80
2022-08-08T23:37:02.867Z,0.93
2022-08-08T23:39:41.757Z,0.80
2022-08-08T23:42:21.241Z,0.80
2022-08-08T23:44:59.488Z,0.90
2022-08-08T23:49:08.353Z,1.10
2022-08-08T23:50:30.661Z,0.93
2022-08-08T23:53:08.631Z,0.90
2022-08-08T23:55:44.280Z,0.70
2022-08-08T23:58:22.347Z,0.70
